< < Back
Terminal Aerodrome Forecast


Current Version              Previous Versions:   1  2  3  4  5  6  7  8  9  

Terminal Aerodrome Forecast

338
FTUS42 KCHS 190328 AAB
TAFCHS
TAF AMD
KCHS 190328Z 1903/1924 13005KT P6SM SCT015 BKN060
     FM190600 16004KT P6SM SCT006 BKN014
     FM190900 VRB03KT 4SM BR SCT004 BKN008
     FM191300 15006KT P6SM SCT008 BKN015
     FM191500 17008KT 4SM -RA BR SCT015 BKN030
     FM191800 18010KT P6SM SCT025 BKN040=

Latest METAR

799
SAUS80 KWBC 191700 RRA
MTRCHS
METAR KCHS 191656Z 12010KT 10SM -RA FEW009 BKN010 OVC020 23/21 A2993 RMK
AO2 RAE10B42 SLP133 P0000 T02330206


USA.gov is the U.S. government's official web portal to all federal, state and local government web resources and services.